sensor_id;sensor_type;location;lat;lon;timestamp;temperature;humidity
5476;DHT22;2760;50.000;9.194;2023-06-10T03:41:19;15.40;99.90
5476;DHT22;2760;50.000;9.194;2023-06-10T03:43:47;15.50;99.90
5476;DHT22;2760;50.000;9.194;2023-06-10T03:46:15;16.60;99.90
5476;DHT22;2760;50.000;9.194;2023-06-10T03:48:44;15.70;99.90
5476;DHT22;2760;50.000;9.194;2023-06-10T03:51:11;15.70;99.90
5476;DHT22;2760;50.000;9.194;2023-06-10T03:53:39;16.30;99.90
5476;DHT22;2760;50.000;9.194;2023-06-10T03:56:06;15.80;99.90
5476;DHT22;2760;50.000;9.194;2023-06-10T03:58:35;15.90;99.90
5476;DHT22;2760;50.000;9.194;2023-06-10T04:01:04;16.00;99.90
5476;DHT22;2760;50.000;9.194;2023-06-10T04:03:35;15.90;99.90
5476;DHT22;2760;50.000;9.194;2023-06-10T04:06:03;16.80;99.90
5476;DHT22;2760;50.000;9.194;2023-06-10T04:08:30;16.10;99.90
5476;DHT22;2760;50.000;9.194;2023-06-10T04:10:59;16.20;99.90
5476;DHT22;2760;50.000;9.194;2023-06-10T04:13:27;17.00;99.90
5476;DHT22;2760;50.000;9.194;2023-06-10T04:16:00;16.20;99.90
5476;DHT22;2760;50.000;9.194;2023-06-10T04:18:30;16.10;99.90
5476;DHT22;2760;50.000;9.194;2023-06-10T04:21:01;16.30;99.90
5476;DHT22;2760;50.000;9.194;2023-06-10T04:23:29;16.20;99.90
5476;DHT22;2760;50.000;9.194;2023-06-10T04:25:56;16.90;99.90
5476;DHT22;2760;50.000;9.194;2023-06-10T04:28:25;16.20;99.90
5476;DHT22;2760;50.000;9.194;2023-06-10T04:30:53;16.20;99.90
5476;DHT22;2760;50.000;9.194;2023-06-10T04:33:22;16.20;99.90
5476;DHT22;2760;50.000;9.194;2023-06-10T04:35:50;15.20;99.90
5476;DHT22;2760;50.000;9.194;2023-06-10T04:38:19;16.40;99.90
5476;DHT22;2760;50.000;9.194;2023-06-10T04:40:46;16.50;99.90
5476;DHT22;2760;50.000;9.194;2023-06-10T04:43:15;17.70;99.90
5476;DHT22;2760;50.000;9.194;2023-06-10T04:45:45;16.60;99.90
5476;DHT22;2760;50.000;9.194;2023-06-10T04:48:13;16.80;99.90
5476;DHT22;2760;50.000;9.194;2023-06-10T04:50:42;16.80;99.90
5476;DHT22;2760;50.000;9.194;2023-06-10T04:53:10;16.90;99.90
5476;DHT22;2760;50.000;9.194;2023-06-10T04:55:44;16.90;99.90
5476;DHT22;2760;50.000;9.194;2023-06-10T04:58:12;17.10;99.90
5476;DHT22;2760;50.000;9.194;2023-06-10T05:00:39;17.20;99.70
5476;DHT22;2760;50.000;9.194;2023-06-10T05:03:06;17.40;99.60
5476;DHT22;2760;50.000;9.194;2023-06-10T05:05:33;17.60;99.40
5476;DHT22;2760;50.000;9.194;2023-06-10T05:08:02;17.80;99.00
5476;DHT22;2760;50.000;9.194;2023-06-10T05:10:29;17.90;98.90
5476;DHT22;2760;50.000;9.194;2023-06-10T05:12:57;16.70;97.80
5476;DHT22;2760;50.000;9.194;2023-06-10T05:15:24;18.40;98.60
5476;DHT22;2760;50.000;9.194;2023-06-10T05:17:51;18.50;98.50
5476;DHT22;2760;50.000;9.194;2023-06-10T05:20:18;18.70;98.20
5476;DHT22;2760;50.000;9.194;2023-06-10T05:22:45;19.00;98.40
5476;DHT22;2760;50.000;9.194;2023-06-10T05:25:14;19.00;97.90
5476;DHT22;2760;50.000;9.194;2023-06-10T05:27:41;19.40;97.80
5476;DHT22;2760;50.000;9.194;2023-06-10T05:30:09;19.50;97.30
5476;DHT22;2760;50.000;9.194;2023-06-10T05:32:40;19.80;97.00
5476;DHT22;2760;50.000;9.194;2023-06-10T05:35:07;19.90;96.80
5476;DHT22;2760;50.000;9.194;2023-06-10T05:37:34;20.00;96.50
5476;DHT22;2760;50.000;9.194;2023-06-10T05:40:03;20.10;95.90
5476;DHT22;2760;50.000;9.194;2023-06-10T05:42:32;20.50;97.00
5476;DHT22;2760;50.000;9.194;2023-06-10T05:44:59;20.80;96.50
5476;DHT22;2760;50.000;9.194;2023-06-10T05:47:26;21.20;94.40
5476;DHT22;2760;50.000;9.194;2023-06-10T05:49:53;21.40;95.80
5476;DHT22;2760;50.000;9.194;2023-06-10T05:52:20;21.60;95.20
5476;DHT22;2760;50.000;9.194;2023-06-10T05:54:47;21.70;94.00
5476;DHT22;2760;50.000;9.194;2023-06-10T05:57:14;21.80;94.60
5476;DHT22;2760;50.000;9.194;2023-06-10T05:59:42;22.30;95.10
5476;DHT22;2760;50.000;9.194;2023-06-10T06:02:09;22.70;94.40
5476;DHT22;2760;50.000;9.194;2023-06-10T06:04:36;22.70;93.60
5476;DHT22;2760;50.000;9.194;2023-06-10T06:07:06;22.60;92.40
5476;DHT22;2760;50.000;9.194;2023-06-10T06:09:33;23.00;91.40
5476;DHT22;2760;50.000;9.194;2023-06-10T06:12:00;23.30;90.60
5476;DHT22;2760;50.000;9.194;2023-06-10T06:14:31;23.40;90.30
5476;DHT22;2760;50.000;9.194;2023-06-10T06:17:34;23.70;90.10
5476;DHT22;2760;50.000;9.194;2023-06-10T06:20:30;24.60;90.60
5476;DHT22;2760;50.000;9.194;2023-06-10T06:23:00;23.60;90.20
5476;DHT22;2760;50.000;9.194;2023-06-10T06:26:05;23.70;89.00
5476;DHT22;2760;50.000;9.194;2023-06-10T06:33:07;23.30;89.00
5476;DHT22;2760;50.000;9.194;2023-06-10T06:35:41;24.40;89.10
5476;DHT22;2760;50.000;9.194;2023-06-10T06:38:59;24.40;88.80
5476;DHT22;2760;50.000;9.194;2023-06-10T06:57:54;25.30;88.00
5476;DHT22;2760;50.000;9.194;2023-06-10T07:00:29;25.70;87.60
5476;DHT22;2760;50.000;9.194;2023-06-10T07:02:56;25.50;87.80
5476;DHT22;2760;50.000;9.194;2023-06-10T07:05:24;25.50;88.30
5476;DHT22;2760;50.000;9.194;2023-06-10T07:07:53;25.70;88.20
5476;DHT22;2760;50.000;9.194;2023-06-10T07:10:23;25.80;88.10
5476;DHT22;2760;50.000;9.194;2023-06-10T07:12:55;26.10;88.30
5476;DHT22;2760;50.000;9.194;2023-06-10T07:15:23;26.30;86.40
5476;DHT22;2760;50.000;9.194;2023-06-10T07:17:49;26.50;86.10
5476;DHT22;2760;50.000;9.194;2023-06-10T07:20:19;24.60;86.20
5476;DHT22;2760;50.000;9.194;2023-06-10T07:22:56;26.40;87.50
5476;DHT22;2760;50.000;9.194;2023-06-10T07:25:26;26.70;88.80
5476;DHT22;2760;50.000;9.194;2023-06-10T07:27:55;26.90;86.30
5476;DHT22;2760;50.000;9.194;2023-06-10T07:30:22;27.10;86.60
5476;DHT22;2760;50.000;9.194;2023-06-10T07:32:49;27.40;85.70
5476;DHT22;2760;50.000;9.194;2023-06-10T07:35:17;27.20;84.30
5476;DHT22;2760;50.000;9.194;2023-06-10T07:37:44;27.40;82.80
5476;DHT22;2760;50.000;9.194;2023-06-10T07:40:18;27.50;82.40
5476;DHT22;2760;50.000;9.194;2023-06-10T07:42:45;26.10;80.90
5476;DHT22;2760;50.000;9.194;2023-06-10T07:45:20;27.40;81.50
5476;DHT22;2760;50.000;9.194;2023-06-10T07:47:51;27.40;81.60
5476;DHT22;2760;50.000;9.194;2023-06-10T07:50:21;27.60;81.30
5476;DHT22;2760;50.000;9.194;2023-06-10T07:53:14;27.70;80.20
5476;DHT22;2760;50.000;9.194;2023-06-10T07:55:58;26.70;79.50
5476;DHT22;2760;50.000;9.194;2023-06-10T08:01:41;25.90;78.40
5476;DHT22;2760;50.000;9.194;2023-06-10T08:04:08;27.70;80.50
5476;DHT22;2760;50.000;9.194;2023-06-10T08:06:36;28.00;80.10
5476;DHT22;2760;50.000;9.194;2023-06-10T08:09:05;27.90;79.10
5476;DHT22;2760;50.000;9.194;2023-06-10T08:11:32;28.20;79.30
5476;DHT22;2760;50.000;9.194;2023-06-10T08:14:17;28.20;79.30
5476;DHT22;2760;50.000;9.194;2023-06-10T08:17:41;28.30;79.50
5476;DHT22;2760;50.000;9.194;2023-06-10T08:20:18;28.20;78.30
5476;DHT22;2760;50.000;9.194;2023-06-10T08:22:54;29.10;79.30
5476;DHT22;2760;50.000;9.194;2023-06-10T08:28:47;26.90;76.80
5476;DHT22;2760;50.000;9.194;2023-06-10T08:31:51;28.50;78.00
5476;DHT22;2760;50.000;9.194;2023-06-10T08:35:23;27.70;77.20
5476;DHT22;2760;50.000;9.194;2023-06-10T08:37:57;29.00;77.30
5476;DHT22;2760;50.000;9.194;2023-06-10T08:40:42;29.20;77.00
5476;DHT22;2760;50.000;9.194;2023-06-10T08:57:13;29.50;76.20
5476;DHT22;2760;50.000;9.194;2023-06-10T09:03:08;29.50;76.70
5476;DHT22;2760;50.000;9.194;2023-06-10T09:05:44;29.70;77.70
5476;DHT22;2760;50.000;9.194;2023-06-10T09:08:16;28.80;74.50
5476;DHT22;2760;50.000;9.194;2023-06-10T09:10:46;29.80;75.50
5476;DHT22;2760;50.000;9.194;2023-06-10T09:13:41;29.30;74.60
5476;DHT22;2760;50.000;9.194;2023-06-10T09:16:44;29.60;75.30
5476;DHT22;2760;50.000;9.194;2023-06-10T09:19:25;29.80;75.50
5476;DHT22;2760;50.000;9.194;2023-06-10T09:21:53;29.90;74.40
5476;DHT22;2760;50.000;9.194;2023-06-10T09:24:24;30.10;73.80
5476;DHT22;2760;50.000;9.194;2023-06-10T09:27:07;28.50;72.10
5476;DHT22;2760;50.000;9.194;2023-06-10T09:29:47;31.00;75.00
5476;DHT22;2760;50.000;9.194;2023-06-10T09:32:15;30.20;74.70
5476;DHT22;2760;50.000;9.194;2023-06-10T09:34:48;30.40;73.90
5476;DHT22;2760;50.000;9.194;2023-06-10T09:37:20;30.60;73.60
5476;DHT22;2760;50.000;9.194;2023-06-10T09:40:02;30.80;73.70
5476;DHT22;2760;50.000;9.194;2023-06-10T09:42:38;30.50;70.90
5476;DHT22;2760;50.000;9.194;2023-06-10T09:45:29;30.10;72.80
5476;DHT22;2760;50.000;9.194;2023-06-10T09:48:03;30.50;72.40
5476;DHT22;2760;50.000;9.194;2023-06-10T09:50:44;30.50;72.60
5476;DHT22;2760;50.000;9.194;2023-06-10T09:53:20;30.20;71.70
5476;DHT22;2760;50.000;9.194;2023-06-10T09:55:50;29.30;71.30
5476;DHT22;2760;50.000;9.194;2023-06-10T09:58:40;30.90;73.30
5476;DHT22;2760;50.000;9.194;2023-06-10T10:01:17;30.60;71.60
5476;DHT22;2760;50.000;9.194;2023-06-10T10:03:48;30.90;72.30
5476;DHT22;2760;50.000;9.194;2023-06-10T10:06:16;30.90;71.70
5476;DHT22;2760;50.000;9.194;2023-06-10T10:08:48;30.50;71.10
5476;DHT22;2760;50.000;9.194;2023-06-10T10:11:18;30.80;72.00
5476;DHT22;2760;50.000;9.194;2023-06-10T10:13:49;30.90;71.40
5476;DHT22;2760;50.000;9.194;2023-06-10T10:16:19;31.00;72.40
5476;DHT22;2760;50.000;9.194;2023-06-10T10:18:51;31.20;71.80
5476;DHT22;2760;50.000;9.194;2023-06-10T10:21:23;31.10;71.50
5476;DHT22;2760;50.000;9.194;2023-06-10T10:24:05;30.90;71.20
5476;DHT22;2760;50.000;9.194;2023-06-10T10:27:04;31.10;70.60
5476;DHT22;2760;50.000;9.194;2023-06-10T10:30:17;31.10;71.90
5476;DHT22;2760;50.000;9.194;2023-06-10T10:32:51;30.70;70.80
5476;DHT22;2760;50.000;9.194;2023-06-10T10:35:38;29.60;69.10
5476;DHT22;2760;50.000;9.194;2023-06-10T10:41:07;31.60;69.90
5476;DHT22;2760;50.000;9.194;2023-06-10T10:43:53;29.90;68.30
5476;DHT22;2760;50.000;9.194;2023-06-10T10:47:04;30.70;68.30
5476;DHT22;2760;50.000;9.194;2023-06-10T10:50:16;30.40;68.50
5476;DHT22;2760;50.000;9.194;2023-06-10T10:53:01;29.40;67.00
5476;DHT22;2760;50.000;9.194;2023-06-10T10:56:12;31.10;69.10
5476;DHT22;2760;50.000;9.194;2023-06-10T10:59:04;33.00;69.50
5476;DHT22;2760;50.000;9.194;2023-06-10T11:01:40;30.60;66.30
5476;DHT22;2760;50.000;9.194;2023-06-10T11:04:10;32.30;68.00
5476;DHT22;2760;50.000;9.194;2023-06-10T11:06:37;32.40;67.20
5476;DHT22;2760;50.000;9.194;2023-06-10T11:09:25;32.10;66.90
5476;DHT22;2760;50.000;9.194;2023-06-10T11:11:56;32.30;66.60
5476;DHT22;2760;50.000;9.194;2023-06-10T11:14:26;32.30;66.30
5476;DHT22;2760;50.000;9.194;2023-06-10T11:16:57;33.50;68.40
5476;DHT22;2760;50.000;9.194;2023-06-10T11:19:36;31.70;67.00
5476;DHT22;2760;50.000;9.194;2023-06-10T11:22:06;31.50;65.40
5476;DHT22;2760;50.000;9.194;2023-06-10T11:24:33;31.20;66.10
5476;DHT22;2760;50.000;9.194;2023-06-10T11:27:15;30.70;67.30
5476;DHT22;2760;50.000;9.194;2023-06-10T11:29:58;30.60;66.80
5476;DHT22;2760;50.000;9.194;2023-06-10T11:32:56;31.50;67.00
5476;DHT22;2760;50.000;9.194;2023-06-10T11:35:29;31.40;66.90
5476;DHT22;2760;50.000;9.194;2023-06-10T11:37:57;31.60;67.30
5476;DHT22;2760;50.000;9.194;2023-06-10T11:40:32;33.80;70.20
5476;DHT22;2760;50.000;9.194;2023-06-10T11:45:54;31.70;66.70
5476;DHT22;2760;50.000;9.194;2023-06-10T11:48:48;31.70;67.60
5476;DHT22;2760;50.000;9.194;2023-06-10T11:51:45;30.90;65.90
5476;DHT22;2760;50.000;9.194;2023-06-10T11:54:20;31.60;66.80
5476;DHT22;2760;50.000;9.194;2023-06-10T11:56:47;31.40;67.50
5476;DHT22;2760;50.000;9.194;2023-06-10T11:59:15;31.90;67.00
5476;DHT22;2760;50.000;9.194;2023-06-10T12:01:43;31.80;65.70
5476;DHT22;2760;50.000;9.194;2023-06-10T12:04:12;31.70;66.30
5476;DHT22;2760;50.000;9.194;2023-06-10T12:06:54;32.20;66.70
5476;DHT22;2760;50.000;9.194;2023-06-10T12:09:24;32.30;65.50
5476;DHT22;2760;50.000;9.194;2023-06-10T12:11:54;32.00;65.60
5476;DHT22;2760;50.000;9.194;2023-06-10T12:14:50;32.10;66.20
5476;DHT22;2760;50.000;9.194;2023-06-10T12:17:23;32.30;65.90
5476;DHT22;2760;50.000;9.194;2023-06-10T12:19:51;32.50;68.00
5476;DHT22;2760;50.000;9.194;2023-06-10T12:22:23;32.40;65.30
5476;DHT22;2760;50.000;9.194;2023-06-10T12:25:04;32.70;65.70
5476;DHT22;2760;50.000;9.194;2023-06-10T12:27:35;32.10;64.30
5476;DHT22;2760;50.000;9.194;2023-06-10T12:30:05;32.00;65.60
5476;DHT22;2760;50.000;9.194;2023-06-10T12:32:40;32.60;66.10
5476;DHT22;2760;50.000;9.194;2023-06-10T12:35:09;32.60;66.60
5476;DHT22;2760;50.000;9.194;2023-06-10T12:37:57;32.60;66.00
5476;DHT22;2760;50.000;9.194;2023-06-10T12:40:31;32.50;65.60
5476;DHT22;2760;50.000;9.194;2023-06-10T12:43:02;33.10;67.70
5476;DHT22;2760;50.000;9.194;2023-06-10T12:45:35;34.30;64.10
5476;DHT22;2760;50.000;9.194;2023-06-10T12:48:11;33.60;65.10
5476;DHT22;2760;50.000;9.194;2023-06-10T12:50:44;33.70;65.00
5476;DHT22;2760;50.000;9.194;2023-06-10T12:53:12;33.60;64.80
5476;DHT22;2760;50.000;9.194;2023-06-10T12:55:40;32.60;64.60
5476;DHT22;2760;50.000;9.194;2023-06-10T12:58:07;32.80;66.00
5476;DHT22;2760;50.000;9.194;2023-06-10T13:00:34;32.60;65.80
5476;DHT22;2760;50.000;9.194;2023-06-10T13:03:02;32.50;66.30
5476;DHT22;2760;50.000;9.194;2023-06-10T13:05:31;32.50;66.30
5476;DHT22;2760;50.000;9.194;2023-06-10T13:08:02;32.40;65.60
5476;DHT22;2760;50.000;9.194;2023-06-10T13:10:31;31.80;66.80
5476;DHT22;2760;50.000;9.194;2023-06-10T13:12:58;31.80;68.00
5476;DHT22;2760;50.000;9.194;2023-06-10T13:15:25;32.10;67.60
5476;DHT22;2760;50.000;9.194;2023-06-10T13:17:52;32.10;67.00
5476;DHT22;2760;50.000;9.194;2023-06-10T13:20:20;32.30;66.00
5476;DHT22;2760;50.000;9.194;2023-06-10T13:22:48;32.10;67.50
5476;DHT22;2760;50.000;9.194;2023-06-10T13:25:18;32.30;65.90
5476;DHT22;2760;50.000;9.194;2023-06-10T13:27:53;31.90;65.70
5476;DHT22;2760;50.000;9.194;2023-06-10T13:30:22;32.10;66.80
5476;DHT22;2760;50.000;9.194;2023-06-10T13:32:49;32.60;65.20
5476;DHT22;2760;50.000;9.194;2023-06-10T13:35:16;32.60;65.10
5476;DHT22;2760;50.000;9.194;2023-06-10T13:37:43;32.60;64.00
5476;DHT22;2760;50.000;9.194;2023-06-10T13:40:11;32.50;63.70
5476;DHT22;2760;50.000;9.194;2023-06-10T13:42:38;32.40;64.50
5476;DHT22;2760;50.000;9.194;2023-06-10T13:45:08;32.20;64.60
5476;DHT22;2760;50.000;9.194;2023-06-10T13:47:35;32.00;64.90
5476;DHT22;2760;50.000;9.194;2023-06-10T13:50:04;31.70;65.10
5476;DHT22;2760;50.000;9.194;2023-06-10T13:52:32;31.50;66.10
5476;DHT22;2760;50.000;9.194;2023-06-10T13:54:59;31.50;65.80
5476;DHT22;2760;50.000;9.194;2023-06-10T13:57:26;31.60;65.20
5476;DHT22;2760;50.000;9.194;2023-06-10T13:59:53;31.40;65.80
5476;DHT22;2760;50.000;9.194;2023-06-10T14:02:23;31.70;65.30
5476;DHT22;2760;50.000;9.194;2023-06-10T14:04:50;31.70;63.80
5476;DHT22;2760;50.000;9.194;2023-06-10T14:07:17;31.50;62.30
5476;DHT22;2760;50.000;9.194;2023-06-10T14:09:44;31.50;64.30
5476;DHT22;2760;50.000;9.194;2023-06-10T14:12:12;31.50;64.70
5476;DHT22;2760;50.000;9.194;2023-06-10T14:14:39;31.60;63.90
5476;DHT22;2760;50.000;9.194;2023-06-10T14:17:07;31.50;64.30
5476;DHT22;2760;50.000;9.194;2023-06-10T14:19:35;31.30;63.90
5476;DHT22;2760;50.000;9.194;2023-06-10T14:22:03;31.60;64.30
5476;DHT22;2760;50.000;9.194;2023-06-10T14:24:30;31.60;63.30
5476;DHT22;2760;50.000;9.194;2023-06-10T14:26:59;31.80;62.70
5476;DHT22;2760;50.000;9.194;2023-06-10T14:29:26;31.60;63.60
5476;DHT22;2760;50.000;9.194;2023-06-10T14:31:54;31.30;66.30
5476;DHT22;2760;50.000;9.194;2023-06-10T14:34:21;31.40;67.10
5476;DHT22;2760;50.000;9.194;2023-06-10T14:36:55;31.20;68.50
5476;DHT22;2760;50.000;9.194;2023-06-10T14:39:22;30.80;67.60
5476;DHT22;2760;50.000;9.194;2023-06-10T14:41:50;31.10;67.80
5476;DHT22;2760;50.000;9.194;2023-06-10T14:44:18;31.30;67.30
5476;DHT22;2760;50.000;9.194;2023-06-10T14:46:45;31.00;67.60
5476;DHT22;2760;50.000;9.194;2023-06-10T14:49:13;30.80;67.60
5476;DHT22;2760;50.000;9.194;2023-06-10T14:51:45;30.80;67.00
5476;DHT22;2760;50.000;9.194;2023-06-10T14:54:30;31.10;67.30
5476;DHT22;2760;50.000;9.194;2023-06-10T14:57:21;29.10;65.70
5476;DHT22;2760;50.000;9.194;2023-06-10T14:59:57;31.00;66.50
5476;DHT22;2760;50.000;9.194;2023-06-10T15:02:25;30.90;66.40
5476;DHT22;2760;50.000;9.194;2023-06-10T15:04:56;30.90;66.50
5476;DHT22;2760;50.000;9.194;2023-06-10T15:07:23;30.80;66.00
5476;DHT22;2760;50.000;9.194;2023-06-10T15:09:52;30.80;63.80
5476;DHT22;2760;50.000;9.194;2023-06-10T15:12:21;30.80;63.20
5476;DHT22;2760;50.000;9.194;2023-06-10T15:14:48;30.90;63.10
5476;DHT22;2760;50.000;9.194;2023-06-10T15:17:15;31.00;63.50
5476;DHT22;2760;50.000;9.194;2023-06-10T15:19:42;31.10;63.20
5476;DHT22;2760;50.000;9.194;2023-06-10T15:22:15;31.10;62.60
5476;DHT22;2760;50.000;9.194;2023-06-10T15:24:42;31.10;63.30
5476;DHT22;2760;50.000;9.194;2023-06-10T15:27:14;30.30;63.20
5476;DHT22;2760;50.000;9.194;2023-06-10T15:29:41;31.00;62.70
5476;DHT22;2760;50.000;9.194;2023-06-10T15:32:12;31.00;63.50
5476;DHT22;2760;50.000;9.194;2023-06-10T15:34:39;31.10;64.90
5476;DHT22;2760;50.000;9.194;2023-06-10T15:37:09;31.30;65.00
5476;DHT22;2760;50.000;9.194;2023-06-10T15:39:36;31.20;64.80
5476;DHT22;2760;50.000;9.194;2023-06-10T15:42:04;31.20;65.50
5476;DHT22;2760;50.000;9.194;2023-06-10T15:44:32;31.30;65.60
5476;DHT22;2760;50.000;9.194;2023-06-10T15:46:59;31.10;64.80
5476;DHT22;2760;50.000;9.194;2023-06-10T15:49:26;31.00;65.30
5476;DHT22;2760;50.000;9.194;2023-06-10T15:51:54;31.10;65.90
5476;DHT22;2760;50.000;9.194;2023-06-10T15:54:21;31.00;66.00
5476;DHT22;2760;50.000;9.194;2023-06-10T15:56:48;30.50;67.80
5476;DHT22;2760;50.000;9.194;2023-06-10T15:59:15;30.30;70.00
5476;DHT22;2760;50.000;9.194;2023-06-10T16:01:47;30.20;71.00
5476;DHT22;2760;50.000;9.194;2023-06-10T16:04:14;29.80;71.90
5476;DHT22;2760;50.000;9.194;2023-06-10T16:06:41;29.50;73.20
5476;DHT22;2760;50.000;9.194;2023-06-10T16:09:08;29.40;73.40
5476;DHT22;2760;50.000;9.194;2023-06-10T16:11:39;29.30;73.80
5476;DHT22;2760;50.000;9.194;2023-06-10T16:14:06;29.30;74.30
5476;DHT22;2760;50.000;9.194;2023-06-10T16:16:33;29.30;73.80
5476;DHT22;2760;50.000;9.194;2023-06-10T16:19:27;29.00;74.50
5476;DHT22;2760;50.000;9.194;2023-06-10T16:22:07;28.80;75.50
5476;DHT22;2760;50.000;9.194;2023-06-10T16:24:34;28.70;75.50
5476;DHT22;2760;50.000;9.194;2023-06-10T16:27:05;28.90;75.20
5476;DHT22;2760;50.000;9.194;2023-06-10T16:29:33;28.90;75.60
5476;DHT22;2760;50.000;9.194;2023-06-10T16:32:00;28.90;75.20
5476;DHT22;2760;50.000;9.194;2023-06-10T16:34:28;29.00;74.70
5476;DHT22;2760;50.000;9.194;2023-06-10T16:36:58;29.10;75.50
5476;DHT22;2760;50.000;9.194;2023-06-10T16:39:25;29.20;75.70
5476;DHT22;2760;50.000;9.194;2023-06-10T16:41:58;28.90;76.50
5476;DHT22;2760;50.000;9.194;2023-06-10T16:44:26;29.10;77.00
5476;DHT22;2760;50.000;9.194;2023-06-10T16:46:56;29.00;77.80
5476;DHT22;2760;50.000;9.194;2023-06-10T16:49:23;28.80;77.80
5476;DHT22;2760;50.000;9.194;2023-06-10T16:51:55;28.60;78.30
5476;DHT22;2760;50.000;9.194;2023-06-10T16:54:22;28.60;79.20
5476;DHT22;2760;50.000;9.194;2023-06-10T16:56:50;28.70;78.80
5476;DHT22;2760;50.000;9.194;2023-06-10T16:59:17;28.70;78.50
5476;DHT22;2760;50.000;9.194;2023-06-10T17:01:47;28.40;79.20
5476;DHT22;2760;50.000;9.194;2023-06-10T17:04:17;28.60;79.10
5476;DHT22;2760;50.000;9.194;2023-06-10T17:06:44;28.40;79.80
5476;DHT22;2760;50.000;9.194;2023-06-10T17:09:12;29.00;80.60
5476;DHT22;2760;50.000;9.194;2023-06-10T17:11:41;28.30;80.10
5476;DHT22;2760;50.000;9.194;2023-06-10T17:14:16;28.30;80.90
5476;DHT22;2760;50.000;9.194;2023-06-10T17:16:44;27.40;78.90
5476;DHT22;2760;50.000;9.194;2023-06-10T17:19:11;28.30;80.50
5476;DHT22;2760;50.000;9.194;2023-06-10T17:21:38;28.00;80.50
5476;DHT22;2760;50.000;9.194;2023-06-10T17:24:05;28.10;81.00
5476;DHT22;2760;50.000;9.194;2023-06-10T17:26:36;28.20;81.20
5476;DHT22;2760;50.000;9.194;2023-06-10T17:29:03;28.20;81.10
5476;DHT22;2760;50.000;9.194;2023-06-10T17:31:30;28.10;81.00
5476;DHT22;2760;50.000;9.194;2023-06-10T17:33:58;28.20;81.20
5476;DHT22;2760;50.000;9.194;2023-06-10T17:36:27;28.10;81.70
5476;DHT22;2760;50.000;9.194;2023-06-10T17:38:55;28.00;80.60
5476;DHT22;2760;50.000;9.194;2023-06-10T17:41:24;27.90;81.60
5476;DHT22;2760;50.000;9.194;2023-06-10T17:44:01;28.00;80.90
5476;DHT22;2760;50.000;9.194;2023-06-10T17:46:28;27.90;81.50
5476;DHT22;2760;50.000;9.194;2023-06-10T17:49:06;27.90;81.20
5476;DHT22;2760;50.000;9.194;2023-06-10T17:51:35;27.80;81.50
5476;DHT22;2760;50.000;9.194;2023-06-10T17:54:04;29.90;83.10
5476;DHT22;2760;50.000;9.194;2023-06-10T17:56:32;27.70;81.30
5476;DHT22;2760;50.000;9.194;2023-06-10T17:59:02;27.60;82.00
5476;DHT22;2760;50.000;9.194;2023-06-10T18:01:29;27.60;82.30
5476;DHT22;2760;50.000;9.194;2023-06-10T18:04:01;27.60;82.90
5476;DHT22;2760;50.000;9.194;2023-06-10T18:06:30;27.60;82.60
5476;DHT22;2760;50.000;9.194;2023-06-10T18:08:58;27.50;82.00
5476;DHT22;2760;50.000;9.194;2023-06-10T18:11:26;27.60;82.30
5476;DHT22;2760;50.000;9.194;2023-06-10T18:13:54;27.50;82.80
5476;DHT22;2760;50.000;9.194;2023-06-10T18:16:25;27.40;83.60
5476;DHT22;2760;50.000;9.194;2023-06-10T18:18:54;27.50;83.20
5476;DHT22;2760;50.000;9.194;2023-06-10T18:21:22;27.60;83.30
5476;DHT22;2760;50.000;9.194;2023-06-10T18:23:49;27.50;82.70
5476;DHT22;2760;50.000;9.194;2023-06-10T18:26:30;27.40;83.30
5476;DHT22;2760;50.000;9.194;2023-06-10T18:29:01;27.40;83.60
5476;DHT22;2760;50.000;9.194;2023-06-10T18:31:34;27.40;84.10
5476;DHT22;2760;50.000;9.194;2023-06-10T18:34:10;27.50;84.60
5476;DHT22;2760;50.000;9.194;2023-06-10T18:36:53;28.90;85.50
5476;DHT22;2760;50.000;9.194;2023-06-10T18:39:34;26.80;84.50
5476;DHT22;2760;50.000;9.194;2023-06-10T18:42:15;27.20;84.50
5476;DHT22;2760;50.000;9.194;2023-06-10T18:44:57;24.80;82.70
5476;DHT22;2760;50.000;9.194;2023-06-10T18:50:59;25.90;83.70
5476;DHT22;2760;50.000;9.194;2023-06-10T18:53:42;26.90;85.30
5476;DHT22;2760;50.000;9.194;2023-06-10T18:56:13;27.00;85.30
5476;DHT22;2760;50.000;9.194;2023-06-10T18:58:46;26.80;86.30
5476;DHT22;2760;50.000;9.194;2023-06-10T19:01:16;26.70;86.70
5476;DHT22;2760;50.000;9.194;2023-06-10T19:04:02;26.80;86.60
5476;DHT22;2760;50.000;9.194;2023-06-10T19:06:31;26.80;86.50
5476;DHT22;2760;50.000;9.194;2023-06-10T19:08:59;26.60;87.10
5476;DHT22;2760;50.000;9.194;2023-06-10T19:11:27;26.50;86.50
5476;DHT22;2760;50.000;9.194;2023-06-10T19:13:54;26.50;86.30
5476;DHT22;2760;50.000;9.194;2023-06-10T19:16:22;26.50;86.60
5476;DHT22;2760;50.000;9.194;2023-06-10T19:18:50;26.80;88.00
5476;DHT22;2760;50.000;9.194;2023-06-10T19:21:21;26.40;87.10
5476;DHT22;2760;50.000;9.194;2023-06-10T19:23:53;26.40;87.50
5476;DHT22;2760;50.000;9.194;2023-06-10T19:26:21;26.40;87.40
5476;DHT22;2760;50.000;9.194;2023-06-10T19:28:49;26.20;87.40
5476;DHT22;2760;50.000;9.194;2023-06-10T19:31:17;26.30;87.50
5476;DHT22;2760;50.000;9.194;2023-06-10T19:33:44;26.20;87.80
5476;DHT22;2760;50.000;9.194;2023-06-10T19:36:12;26.10;87.80
5476;DHT22;2760;50.000;9.194;2023-06-10T19:38:39;26.00;88.50
5476;DHT22;2760;50.000;9.194;2023-06-10T19:41:09;26.10;88.00
5476;DHT22;2760;50.000;9.194;2023-06-10T19:43:51;26.20;88.10
5476;DHT22;2760;50.000;9.194;2023-06-10T19:46:18;23.90;86.60
5476;DHT22;2760;50.000;9.194;2023-06-10T19:48:47;26.00;88.50
5476;DHT22;2760;50.000;9.194;2023-06-10T19:51:16;25.90;89.40
5476;DHT22;2760;50.000;9.194;2023-06-10T19:53:44;25.70;89.60
5476;DHT22;2760;50.000;9.194;2023-06-10T19:56:13;25.60;89.90
5476;DHT22;2760;50.000;9.194;2023-06-10T19:58:44;25.40;89.40
5476;DHT22;2760;50.000;9.194;2023-06-10T20:01:12;25.50;90.00
5476;DHT22;2760;50.000;9.194;2023-06-10T20:03:39;25.50;90.00
5476;DHT22;2760;50.000;9.194;2023-06-10T20:06:07;25.40;89.90
5476;DHT22;2760;50.000;9.194;2023-06-10T20:08:35;25.20;90.20
5476;DHT22;2760;50.000;9.194;2023-06-10T20:11:02;24.90;90.30
5476;DHT22;2760;50.000;9.194;2023-06-10T20:13:31;25.10;90.50
5476;DHT22;2760;50.000;9.194;2023-06-10T20:15:58;24.90;90.80
5476;DHT22;2760;50.000;9.194;2023-06-10T20:18:25;24.80;90.30
5476;DHT22;2760;50.000;9.194;2023-06-10T20:20:52;24.80;90.70
5476;DHT22;2760;50.000;9.194;2023-06-10T20:23:20;24.90;90.50
5476;DHT22;2760;50.000;9.194;2023-06-10T20:25:48;25.00;90.30
5476;DHT22;2760;50.000;9.194;2023-06-10T20:28:31;25.00;90.20
5476;DHT22;2760;50.000;9.194;2023-06-10T20:30:58;25.00;90.00
5476;DHT22;2760;50.000;9.194;2023-06-10T20:33:25;24.90;90.00
5476;DHT22;2760;50.000;9.194;2023-06-10T20:35:52;25.00;90.20
5476;DHT22;2760;50.000;9.194;2023-06-10T20:38:20;24.90;90.20
5476;DHT22;2760;50.000;9.194;2023-06-10T20:40:47;25.00;89.90
5476;DHT22;2760;50.000;9.194;2023-06-10T20:43:14;24.90;90.20
5476;DHT22;2760;50.000;9.194;2023-06-10T20:45:43;25.00;89.80
5476;DHT22;2760;50.000;9.194;2023-06-10T20:48:14;25.00;89.60
5476;DHT22;2760;50.000;9.194;2023-06-10T20:50:42;25.00;89.60
5476;DHT22;2760;50.000;9.194;2023-06-10T20:53:09;24.90;89.80
5476;DHT22;2760;50.000;9.194;2023-06-10T20:55:37;24.80;90.00
5476;DHT22;2760;50.000;9.194;2023-06-10T20:58:09;24.90;90.00
5476;DHT22;2760;50.000;9.194;2023-06-10T21:01:00;25.00;90.40
5476;DHT22;2760;50.000;9.194;2023-06-10T21:03:37;24.70;90.10
5476;DHT22;2760;50.000;9.194;2023-06-10T21:06:14;24.60;90.40
5476;DHT22;2760;50.000;9.194;2023-06-10T21:09:00;24.50;90.60